sensor_id;sensor_type;location;lat;lon;timestamp;P1;durP1;ratioP1;P2;durP2;ratioP2
51732;SDS011;39139;53.144;6.244;2022-11-15T00:00:46;37.45;;;22.48;;
51732;SDS011;39139;53.144;6.244;2022-11-15T00:03:15;32.80;;;21.85;;
51732;SDS011;39139;53.144;6.244;2022-11-15T00:05:41;33.50;;;21.55;;
51732;SDS011;39139;53.144;6.244;2022-11-15T00:08:08;31.17;;;21.70;;
51732;SDS011;39139;53.144;6.244;2022-11-15T00:10:34;33.63;;;22.25;;
51732;SDS011;39139;53.144;6.244;2022-11-15T00:13:03;36.90;;;23.13;;
51732;SDS011;39139;53.144;6.244;2022-11-15T00:15:30;29.92;;;21.67;;
51732;SDS011;39139;53.144;6.244;2022-11-15T00:17:56;33.15;;;22.27;;
51732;SDS011;39139;53.144;6.244;2022-11-15T00:20:21;32.90;;;22.92;;
51732;SDS011;39139;53.144;6.244;2022-11-15T00:22:47;36.85;;;23.42;;
51732;SDS011;39139;53.144;6.244;2022-11-15T00:25:13;36.13;;;24.15;;
51732;SDS011;39139;53.144;6.244;2022-11-15T00:27:38;31.77;;;21.70;;
51732;SDS011;39139;53.144;6.244;2022-11-15T00:30:04;32.20;;;21.38;;
51732;SDS011;39139;53.144;6.244;2022-11-15T00:32:31;36.50;;;22.98;;
51732;SDS011;39139;53.144;6.244;2022-11-15T00:34:57;36.08;;;22.23;;
51732;SDS011;39139;53.144;6.244;2022-11-15T00:37:22;29.48;;;21.02;;
51732;SDS011;39139;53.144;6.244;2022-11-15T00:39:48;33.00;;;21.83;;
51732;SDS011;39139;53.144;6.244;2022-11-15T00:42:14;31.50;;;21.60;;
51732;SDS011;39139;53.144;6.244;2022-11-15T00:44:39;32.47;;;21.52;;
51732;SDS011;39139;53.144;6.244;2022-11-15T00:47:05;29.20;;;20.77;;
51732;SDS011;39139;53.144;6.244;2022-11-15T00:49:30;29.38;;;20.17;;
51732;SDS011;39139;53.144;6.244;2022-11-15T00:51:59;33.40;;;21.55;;
51732;SDS011;39139;53.144;6.244;2022-11-15T00:54:24;29.65;;;20.60;;
51732;SDS011;39139;53.144;6.244;2022-11-15T00:56:50;32.95;;;21.30;;
51732;SDS011;39139;53.144;6.244;2022-11-15T00:59:16;29.08;;;20.27;;
51732;SDS011;39139;53.144;6.244;2022-11-15T01:01:41;29.05;;;20.65;;
51732;SDS011;39139;53.144;6.244;2022-11-15T01:04:07;31.98;;;21.33;;
51732;SDS011;39139;53.144;6.244;2022-11-15T01:06:32;28.35;;;20.67;;
51732;SDS011;39139;53.144;6.244;2022-11-15T01:08:58;35.92;;;22.90;;
51732;SDS011;39139;53.144;6.244;2022-11-15T01:11:24;27.92;;;21.50;;
51732;SDS011;39139;53.144;6.244;2022-11-15T01:13:49;34.80;;;22.50;;
51732;SDS011;39139;53.144;6.244;2022-11-15T01:16:16;29.77;;;21.45;;
51732;SDS011;39139;53.144;6.244;2022-11-15T01:18:44;33.78;;;23.50;;
51732;SDS011;39139;53.144;6.244;2022-11-15T01:21:10;32.45;;;23.98;;
51732;SDS011;39139;53.144;6.244;2022-11-15T01:23:38;30.98;;;21.90;;
51732;SDS011;39139;53.144;6.244;2022-11-15T01:26:05;37.92;;;23.48;;
51732;SDS011;39139;53.144;6.244;2022-11-15T01:28:33;32.25;;;23.42;;
51732;SDS011;39139;53.144;6.244;2022-11-15T01:31:03;33.80;;;23.95;;
51732;SDS011;39139;53.144;6.244;2022-11-15T01:33:33;31.80;;;22.13;;
51732;SDS011;39139;53.144;6.244;2022-11-15T01:36:02;33.33;;;22.52;;
51732;SDS011;39139;53.144;6.244;2022-11-15T01:38:30;34.38;;;23.92;;
51732;SDS011;39139;53.144;6.244;2022-11-15T01:40:55;34.50;;;24.17;;
51732;SDS011;39139;53.144;6.244;2022-11-15T01:45:52;36.38;;;23.52;;
51732;SDS011;39139;53.144;6.244;2022-11-15T01:48:34;35.47;;;23.48;;
51732;SDS011;39139;53.144;6.244;2022-11-15T01:51:00;36.67;;;23.45;;
51732;SDS011;39139;53.144;6.244;2022-11-15T01:53:31;33.05;;;23.45;;
51732;SDS011;39139;53.144;6.244;2022-11-15T01:55:59;34.90;;;23.77;;
51732;SDS011;39139;53.144;6.244;2022-11-15T01:58:29;34.97;;;23.40;;
51732;SDS011;39139;53.144;6.244;2022-11-15T02:00:55;38.90;;;23.52;;
51732;SDS011;39139;53.144;6.244;2022-11-15T02:03:21;34.67;;;22.30;;
51732;SDS011;39139;53.144;6.244;2022-11-15T02:05:50;37.45;;;23.63;;
51732;SDS011;39139;53.144;6.244;2022-11-15T02:08:17;38.35;;;25.05;;
51732;SDS011;39139;53.144;6.244;2022-11-15T02:10:45;37.72;;;24.77;;
51732;SDS011;39139;53.144;6.244;2022-11-15T02:13:12;34.58;;;22.73;;
51732;SDS011;39139;53.144;6.244;2022-11-15T02:15:46;33.17;;;21.67;;
51732;SDS011;39139;53.144;6.244;2022-11-15T02:18:24;32.63;;;22.23;;
51732;SDS011;39139;53.144;6.244;2022-11-15T02:23:45;32.92;;;21.25;;
51732;SDS011;39139;53.144;6.244;2022-11-15T02:32:26;31.73;;;20.92;;
51732;SDS011;39139;53.144;6.244;2022-11-15T02:37:45;32.60;;;21.20;;
51732;SDS011;39139;53.144;6.244;2022-11-15T02:40:28;36.10;;;21.80;;
51732;SDS011;39139;53.144;6.244;2022-11-15T02:43:08;40.17;;;22.45;;
51732;SDS011;39139;53.144;6.244;2022-11-15T02:46:38;38.65;;;21.23;;
51732;SDS011;39139;53.144;6.244;2022-11-15T02:48:47;38.28;;;22.48;;
51732;SDS011;39139;53.144;6.244;2022-11-15T02:51:13;39.53;;;22.85;;
51732;SDS011;39139;53.144;6.244;2022-11-15T02:53:41;40.83;;;22.90;;
51732;SDS011;39139;53.144;6.244;2022-11-15T02:56:07;39.92;;;23.00;;
51732;SDS011;39139;53.144;6.244;2022-11-15T02:58:40;37.90;;;21.70;;
51732;SDS011;39139;53.144;6.244;2022-11-15T03:01:32;44.13;;;23.95;;
51732;SDS011;39139;53.144;6.244;2022-11-15T03:07:11;42.40;;;23.20;;
51732;SDS011;39139;53.144;6.244;2022-11-15T03:12:42;38.95;;;23.90;;
51732;SDS011;39139;53.144;6.244;2022-11-15T03:15:31;42.80;;;21.55;;
51732;SDS011;39139;53.144;6.244;2022-11-15T03:18:04;47.50;;;22.73;;
51732;SDS011;39139;53.144;6.244;2022-11-15T03:20:37;43.65;;;24.38;;
51732;SDS011;39139;53.144;6.244;2022-11-15T03:23:04;39.90;;;23.00;;
51732;SDS011;39139;53.144;6.244;2022-11-15T03:25:35;49.40;;;24.13;;
51732;SDS011;39139;53.144;6.244;2022-11-15T03:28:03;43.22;;;23.65;;
51732;SDS011;39139;53.144;6.244;2022-11-15T03:30:32;50.72;;;26.15;;
51732;SDS011;39139;53.144;6.244;2022-11-15T03:33:01;45.22;;;23.55;;
51732;SDS011;39139;53.144;6.244;2022-11-15T03:35:30;45.33;;;23.48;;
51732;SDS011;39139;53.144;6.244;2022-11-15T03:38:19;46.60;;;24.73;;
51732;SDS011;39139;53.144;6.244;2022-11-15T03:40:55;47.75;;;24.67;;
51732;SDS011;39139;53.144;6.244;2022-11-15T03:43:35;50.63;;;25.40;;
51732;SDS011;39139;53.144;6.244;2022-11-15T03:46:12;49.20;;;25.20;;
51732;SDS011;39139;53.144;6.244;2022-11-15T03:48:45;55.78;;;27.08;;
51732;SDS011;39139;53.144;6.244;2022-11-15T03:51:19;52.90;;;25.48;;
51732;SDS011;39139;53.144;6.244;2022-11-15T03:53:45;48.05;;;25.30;;
51732;SDS011;39139;53.144;6.244;2022-11-15T03:56:10;57.42;;;26.20;;
51732;SDS011;39139;53.144;6.244;2022-11-15T03:58:36;52.75;;;28.27;;
51732;SDS011;39139;53.144;6.244;2022-11-15T04:01:02;56.47;;;28.60;;
51732;SDS011;39139;53.144;6.244;2022-11-15T04:03:27;52.22;;;26.00;;
51732;SDS011;39139;53.144;6.244;2022-11-15T04:05:53;62.20;;;26.85;;
51732;SDS011;39139;53.144;6.244;2022-11-15T04:08:18;55.85;;;26.98;;
51732;SDS011;39139;53.144;6.244;2022-11-15T04:10:44;52.85;;;25.63;;
51732;SDS011;39139;53.144;6.244;2022-11-15T04:13:10;69.22;;;28.23;;
51732;SDS011;39139;53.144;6.244;2022-11-15T04:15:35;64.03;;;27.58;;
51732;SDS011;39139;53.144;6.244;2022-11-15T04:18:01;60.47;;;27.77;;
51732;SDS011;39139;53.144;6.244;2022-11-15T04:20:27;58.08;;;28.02;;
51732;SDS011;39139;53.144;6.244;2022-11-15T04:23:14;58.88;;;26.35;;
51732;SDS011;39139;53.144;6.244;2022-11-15T04:28:30;65.50;;;27.50;;
51732;SDS011;39139;53.144;6.244;2022-11-15T04:30:55;60.67;;;26.88;;
51732;SDS011;39139;53.144;6.244;2022-11-15T04:33:21;58.38;;;26.55;;
51732;SDS011;39139;53.144;6.244;2022-11-15T04:35:47;59.00;;;29.00;;
51732;SDS011;39139;53.144;6.244;2022-11-15T04:38:33;71.43;;;28.83;;
51732;SDS011;39139;53.144;6.244;2022-11-15T04:40:59;59.78;;;28.00;;
51732;SDS011;39139;53.144;6.244;2022-11-15T04:43:25;62.78;;;27.65;;
51732;SDS011;39139;53.144;6.244;2022-11-15T04:45:51;61.55;;;28.52;;
51732;SDS011;39139;53.144;6.244;2022-11-15T04:48:17;65.80;;;28.77;;
51732;SDS011;39139;53.144;6.244;2022-11-15T04:50:43;57.47;;;26.52;;
51732;SDS011;39139;53.144;6.244;2022-11-15T04:53:08;62.15;;;29.08;;
51732;SDS011;39139;53.144;6.244;2022-11-15T04:55:34;55.92;;;28.27;;
51732;SDS011;39139;53.144;6.244;2022-11-15T04:58:00;54.97;;;27.30;;
51732;SDS011;39139;53.144;6.244;2022-11-15T05:00:26;61.40;;;29.05;;
51732;SDS011;39139;53.144;6.244;2022-11-15T05:02:53;74.47;;;29.05;;
51732;SDS011;39139;53.144;6.244;2022-11-15T05:05:37;61.45;;;28.48;;
51732;SDS011;39139;53.144;6.244;2022-11-15T05:08:03;62.08;;;29.17;;
51732;SDS011;39139;53.144;6.244;2022-11-15T05:10:29;69.70;;;30.23;;
51732;SDS011;39139;53.144;6.244;2022-11-15T05:12:55;68.68;;;30.00;;
51732;SDS011;39139;53.144;6.244;2022-11-15T05:15:20;63.15;;;28.75;;
51732;SDS011;39139;53.144;6.244;2022-11-15T05:17:46;73.35;;;30.63;;
51732;SDS011;39139;53.144;6.244;2022-11-15T05:20:12;70.63;;;32.17;;
51732;SDS011;39139;53.144;6.244;2022-11-15T05:22:38;75.68;;;32.65;;
51732;SDS011;39139;53.144;6.244;2022-11-15T05:25:04;76.50;;;33.30;;
51732;SDS011;39139;53.144;6.244;2022-11-15T05:27:31;73.03;;;32.45;;
51732;SDS011;39139;53.144;6.244;2022-11-15T05:29:57;86.55;;;35.15;;
51732;SDS011;39139;53.144;6.244;2022-11-15T05:32:23;87.03;;;36.83;;
51732;SDS011;39139;53.144;6.244;2022-11-15T05:34:49;78.63;;;35.15;;
51732;SDS011;39139;53.144;6.244;2022-11-15T05:37:15;79.75;;;38.05;;
51732;SDS011;39139;53.144;6.244;2022-11-15T05:39:41;88.13;;;37.72;;
51732;SDS011;39139;53.144;6.244;2022-11-15T05:42:11;89.97;;;36.78;;
51732;SDS011;39139;53.144;6.244;2022-11-15T05:44:39;87.47;;;38.80;;
51732;SDS011;39139;53.144;6.244;2022-11-15T05:47:08;94.63;;;40.92;;
51732;SDS011;39139;53.144;6.244;2022-11-15T05:49:36;91.93;;;39.67;;
51732;SDS011;39139;53.144;6.244;2022-11-15T05:52:03;93.07;;;40.80;;
51732;SDS011;39139;53.144;6.244;2022-11-15T05:54:31;89.40;;;36.20;;
51732;SDS011;39139;53.144;6.244;2022-11-15T05:56:58;97.03;;;40.58;;
51732;SDS011;39139;53.144;6.244;2022-11-15T05:59:25;101.47;;;41.58;;
51732;SDS011;39139;53.144;6.244;2022-11-15T06:01:53;117.63;;;44.95;;
51732;SDS011;39139;53.144;6.244;2022-11-15T06:04:18;109.57;;;45.75;;
51732;SDS011;39139;53.144;6.244;2022-11-15T06:06:44;109.13;;;44.10;;
51732;SDS011;39139;53.144;6.244;2022-11-15T06:09:09;119.80;;;45.20;;
51732;SDS011;39139;53.144;6.244;2022-11-15T06:11:35;110.68;;;44.80;;
51732;SDS011;39139;53.144;6.244;2022-11-15T06:14:01;112.20;;;45.97;;
51732;SDS011;39139;53.144;6.244;2022-11-15T06:16:26;131.95;;;47.40;;
51732;SDS011;39139;53.144;6.244;2022-11-15T06:18:52;131.43;;;46.28;;
51732;SDS011;39139;53.144;6.244;2022-11-15T06:21:18;116.53;;;42.80;;
51732;SDS011;39139;53.144;6.244;2022-11-15T06:23:43;146.05;;;47.63;;
51732;SDS011;39139;53.144;6.244;2022-11-15T06:26:09;118.60;;;47.40;;
51732;SDS011;39139;53.144;6.244;2022-11-15T06:28:34;114.40;;;46.40;;
51732;SDS011;39139;53.144;6.244;2022-11-15T06:31:07;121.72;;;45.40;;
51732;SDS011;39139;53.144;6.244;2022-11-15T06:33:34;118.43;;;44.65;;
51732;SDS011;39139;53.144;6.244;2022-11-15T06:36:01;132.32;;;47.75;;
51732;SDS011;39139;53.144;6.244;2022-11-15T06:38:28;108.57;;;44.78;;
51732;SDS011;39139;53.144;6.244;2022-11-15T06:40:54;118.15;;;45.00;;
51732;SDS011;39139;53.144;6.244;2022-11-15T06:43:29;123.93;;;47.17;;
51732;SDS011;39139;53.144;6.244;2022-11-15T06:45:55;123.28;;;46.75;;
51732;SDS011;39139;53.144;6.244;2022-11-15T06:48:22;129.25;;;47.25;;
51732;SDS011;39139;53.144;6.244;2022-11-15T06:50:51;128.88;;;47.05;;
51732;SDS011;39139;53.144;6.244;2022-11-15T06:53:18;122.55;;;47.03;;
51732;SDS011;39139;53.144;6.244;2022-11-15T06:55:44;116.82;;;46.47;;
51732;SDS011;39139;53.144;6.244;2022-11-15T06:58:09;132.48;;;48.90;;
51732;SDS011;39139;53.144;6.244;2022-11-15T07:00:35;114.70;;;45.20;;
51732;SDS011;39139;53.144;6.244;2022-11-15T07:03:01;125.50;;;46.20;;
51732;SDS011;39139;53.144;6.244;2022-11-15T07:05:27;117.32;;;48.72;;
51732;SDS011;39139;53.144;6.244;2022-11-15T07:07:53;105.00;;;45.83;;
51732;SDS011;39139;53.144;6.244;2022-11-15T07:10:20;101.72;;;46.70;;
51732;SDS011;39139;53.144;6.244;2022-11-15T07:12:49;105.60;;;44.47;;
51732;SDS011;39139;53.144;6.244;2022-11-15T07:15:20;96.80;;;43.67;;
51732;SDS011;39139;53.144;6.244;2022-11-15T07:20:14;95.93;;;41.40;;
51732;SDS011;39139;53.144;6.244;2022-11-15T07:22:40;98.80;;;45.03;;
51732;SDS011;39139;53.144;6.244;2022-11-15T07:25:07;92.93;;;42.75;;
51732;SDS011;39139;53.144;6.244;2022-11-15T07:27:33;100.50;;;44.13;;
51732;SDS011;39139;53.144;6.244;2022-11-15T07:29:59;93.05;;;44.45;;
51732;SDS011;39139;53.144;6.244;2022-11-15T07:32:25;88.47;;;43.45;;
51732;SDS011;39139;53.144;6.244;2022-11-15T07:34:51;99.25;;;45.13;;
51732;SDS011;39139;53.144;6.244;2022-11-15T07:37:17;87.13;;;44.65;;
51732;SDS011;39139;53.144;6.244;2022-11-15T07:39:43;84.82;;;42.35;;
51732;SDS011;39139;53.144;6.244;2022-11-15T07:42:09;91.55;;;44.67;;
51732;SDS011;39139;53.144;6.244;2022-11-15T07:44:53;90.15;;;42.78;;
51732;SDS011;39139;53.144;6.244;2022-11-15T07:47:19;98.10;;;42.58;;
51732;SDS011;39139;53.144;6.244;2022-11-15T07:49:45;87.80;;;42.40;;
51732;SDS011;39139;53.144;6.244;2022-11-15T07:52:11;80.97;;;41.63;;
51732;SDS011;39139;53.144;6.244;2022-11-15T07:54:37;77.85;;;40.55;;
51732;SDS011;39139;53.144;6.244;2022-11-15T07:57:03;81.13;;;40.85;;
51732;SDS011;39139;53.144;6.244;2022-11-15T07:59:30;80.45;;;42.85;;
51732;SDS011;39139;53.144;6.244;2022-11-15T08:01:55;75.40;;;41.38;;
51732;SDS011;39139;53.144;6.244;2022-11-15T08:04:21;73.05;;;40.28;;
51732;SDS011;39139;53.144;6.244;2022-11-15T08:06:47;76.90;;;40.15;;
51732;SDS011;39139;53.144;6.244;2022-11-15T08:09:12;85.60;;;42.55;;
51732;SDS011;39139;53.144;6.244;2022-11-15T08:11:38;67.18;;;39.30;;
51732;SDS011;39139;53.144;6.244;2022-11-15T08:14:04;69.63;;;40.00;;
51732;SDS011;39139;53.144;6.244;2022-11-15T08:16:29;73.63;;;41.28;;
51732;SDS011;39139;53.144;6.244;2022-11-15T08:18:55;67.63;;;38.83;;
51732;SDS011;39139;53.144;6.244;2022-11-15T08:21:21;69.15;;;38.05;;
51732;SDS011;39139;53.144;6.244;2022-11-15T08:23:47;65.45;;;38.63;;
51732;SDS011;39139;53.144;6.244;2022-11-15T08:26:12;73.50;;;39.58;;
51732;SDS011;39139;53.144;6.244;2022-11-15T08:28:38;67.13;;;39.97;;
51732;SDS011;39139;53.144;6.244;2022-11-15T08:31:04;67.15;;;38.28;;
51732;SDS011;39139;53.144;6.244;2022-11-15T08:33:30;62.97;;;37.15;;
51732;SDS011;39139;53.144;6.244;2022-11-15T08:35:57;64.30;;;37.78;;
51732;SDS011;39139;53.144;6.244;2022-11-15T08:38:24;66.70;;;36.60;;
51732;SDS011;39139;53.144;6.244;2022-11-15T08:40:51;56.35;;;38.05;;
51732;SDS011;39139;53.144;6.244;2022-11-15T08:43:19;63.20;;;38.47;;
51732;SDS011;39139;53.144;6.244;2022-11-15T08:45:44;56.60;;;35.22;;
51732;SDS011;39139;53.144;6.244;2022-11-15T08:48:10;62.25;;;37.65;;
51732;SDS011;39139;53.144;6.244;2022-11-15T08:50:36;52.47;;;37.25;;
51732;SDS011;39139;53.144;6.244;2022-11-15T08:53:06;58.10;;;35.88;;
51732;SDS011;39139;53.144;6.244;2022-11-15T08:55:35;55.85;;;34.53;;
51732;SDS011;39139;53.144;6.244;2022-11-15T08:58:04;52.00;;;33.58;;
51732;SDS011;39139;53.144;6.244;2022-11-15T09:00:30;51.83;;;35.03;;
51732;SDS011;39139;53.144;6.244;2022-11-15T09:02:56;52.15;;;34.13;;
51732;SDS011;39139;53.144;6.244;2022-11-15T09:05:22;47.35;;;32.65;;
51732;SDS011;39139;53.144;6.244;2022-11-15T09:07:49;56.30;;;35.60;;
51732;SDS011;39139;53.144;6.244;2022-11-15T09:10:19;50.80;;;33.53;;
51732;SDS011;39139;53.144;6.244;2022-11-15T09:12:45;49.00;;;35.10;;
51732;SDS011;39139;53.144;6.244;2022-11-15T09:15:13;55.65;;;35.15;;
51732;SDS011;39139;53.144;6.244;2022-11-15T09:17:40;47.85;;;33.28;;
51732;SDS011;39139;53.144;6.244;2022-11-15T09:20:06;54.45;;;33.25;;
51732;SDS011;39139;53.144;6.244;2022-11-15T09:22:32;45.05;;;32.90;;
51732;SDS011;39139;53.144;6.244;2022-11-15T09:24:58;44.85;;;32.88;;
51732;SDS011;39139;53.144;6.244;2022-11-15T09:27:27;40.40;;;31.27;;
51732;SDS011;39139;53.144;6.244;2022-11-15T09:29:54;43.55;;;31.75;;
51732;SDS011;39139;53.144;6.244;2022-11-15T09:32:20;45.03;;;32.13;;
51732;SDS011;39139;53.144;6.244;2022-11-15T09:34:47;44.95;;;31.40;;
51732;SDS011;39139;53.144;6.244;2022-11-15T09:37:12;42.53;;;30.13;;
51732;SDS011;39139;53.144;6.244;2022-11-15T09:39:38;43.00;;;30.83;;
51732;SDS011;39139;53.144;6.244;2022-11-15T09:47:38;41.95;;;29.65;;
51732;SDS011;39139;53.144;6.244;2022-11-15T09:50:12;44.42;;;29.80;;
51732;SDS011;39139;53.144;6.244;2022-11-15T09:52:43;43.75;;;31.27;;
51732;SDS011;39139;53.144;6.244;2022-11-15T09:55:10;41.83;;;29.67;;
51732;SDS011;39139;53.144;6.244;2022-11-15T10:00:16;43.47;;;30.10;;
51732;SDS011;39139;53.144;6.244;2022-11-15T10:05:46;37.55;;;28.13;;
51732;SDS011;39139;53.144;6.244;2022-11-15T10:11:20;38.45;;;28.92;;
51732;SDS011;39139;53.144;6.244;2022-11-15T10:13:51;38.65;;;28.95;;
51732;SDS011;39139;53.144;6.244;2022-11-15T10:24:27;37.95;;;27.52;;
51732;SDS011;39139;53.144;6.244;2022-11-15T10:26:56;38.83;;;28.60;;
51732;SDS011;39139;53.144;6.244;2022-11-15T10:29:22;44.20;;;28.60;;
51732;SDS011;39139;53.144;6.244;2022-11-15T10:31:49;37.35;;;26.73;;
51732;SDS011;39139;53.144;6.244;2022-11-15T10:34:19;34.20;;;25.38;;
51732;SDS011;39139;53.144;6.244;2022-11-15T10:36:59;37.70;;;25.50;;
51732;SDS011;39139;53.144;6.244;2022-11-15T10:39:28;34.97;;;25.20;;
51732;SDS011;39139;53.144;6.244;2022-11-15T10:41:54;34.30;;;24.98;;
51732;SDS011;39139;53.144;6.244;2022-11-15T10:44:21;36.58;;;25.80;;
51732;SDS011;39139;53.144;6.244;2022-11-15T10:49:20;34.50;;;23.17;;
51732;SDS011;39139;53.144;6.244;2022-11-15T10:52:16;29.50;;;24.27;;
51732;SDS011;39139;53.144;6.244;2022-11-15T10:54:46;32.58;;;22.35;;
51732;SDS011;39139;53.144;6.244;2022-11-15T10:58:20;33.65;;;21.52;;
51732;SDS011;39139;53.144;6.244;2022-11-15T11:03:06;28.52;;;21.08;;
51732;SDS011;39139;53.144;6.244;2022-11-15T11:05:45;34.17;;;20.42;;
51732;SDS011;39139;53.144;6.244;2022-11-15T11:10:36;29.52;;;20.83;;
51732;SDS011;39139;53.144;6.244;2022-11-15T11:18:34;23.55;;;14.65;;
51732;SDS011;39139;53.144;6.244;2022-11-15T11:21:09;22.75;;;16.33;;
51732;SDS011;39139;53.144;6.244;2022-11-15T11:23:45;24.00;;;16.60;;
51732;SDS011;39139;53.144;6.244;2022-11-15T11:29:20;23.63;;;16.05;;
51732;SDS011;39139;53.144;6.244;2022-11-15T11:32:02;17.58;;;15.52;;
51732;SDS011;39139;53.144;6.244;2022-11-15T11:42:41;21.20;;;13.52;;
51732;SDS011;39139;53.144;6.244;2022-11-15T11:51:40;17.23;;;12.15;;
51732;SDS011;39139;53.144;6.244;2022-11-15T11:54:14;15.25;;;10.70;;
51732;SDS011;39139;53.144;6.244;2022-11-15T11:56:47;15.75;;;10.73;;
51732;SDS011;39139;53.144;6.244;2022-11-15T11:59:28;14.73;;;11.10;;
51732;SDS011;39139;53.144;6.244;2022-11-15T12:02:18;11.82;;;10.05;;
51732;SDS011;39139;53.144;6.244;2022-11-15T12:04:56;13.15;;;9.70;;
51732;SDS011;39139;53.144;6.244;2022-11-15T12:07:30;10.57;;;8.52;;
51732;SDS011;39139;53.144;6.244;2022-11-15T12:12:34;10.32;;;6.88;;
51732;SDS011;39139;53.144;6.244;2022-11-15T12:15:31;11.52;;;6.47;;
51732;SDS011;39139;53.144;6.244;2022-11-15T12:18:02;14.82;;;6.50;;
51732;SDS011;39139;53.144;6.244;2022-11-15T12:20:29;13.85;;;6.35;;
51732;SDS011;39139;53.144;6.244;2022-11-15T12:23:01;10.50;;;6.50;;
51732;SDS011;39139;53.144;6.244;2022-11-15T12:25:44;7.63;;;6.35;;
51732;SDS011;39139;53.144;6.244;2022-11-15T12:30:50;8.98;;;5.75;;
51732;SDS011;39139;53.144;6.244;2022-11-15T12:33:42;8.18;;;4.45;;
51732;SDS011;39139;53.144;6.244;2022-11-15T12:38:58;6.68;;;4.97;;
51732;SDS011;39139;53.144;6.244;2022-11-15T12:41:32;8.07;;;5.55;;
51732;SDS011;39139;53.144;6.244;2022-11-15T12:43:59;7.35;;;5.30;;
51732;SDS011;39139;53.144;6.244;2022-11-15T12:49:02;6.90;;;4.68;;
51732;SDS011;39139;53.144;6.244;2022-11-15T13:22:47;6.30;;;3.90;;
51732;SDS011;39139;53.144;6.244;2022-11-15T13:33:16;4.78;;;2.88;;
51732;SDS011;39139;53.144;6.244;2022-11-15T13:35:42;7.43;;;3.03;;
51732;SDS011;39139;53.144;6.244;2022-11-15T13:38:24;2.95;;;2.22;;
51732;SDS011;39139;53.144;6.244;2022-11-15T13:40:54;7.20;;;2.55;;
51732;SDS011;39139;53.144;6.244;2022-11-15T13:46:06;2.85;;;2.00;;
51732;SDS011;39139;53.144;6.244;2022-11-15T13:48:41;2.47;;;2.28;;
51732;SDS011;39139;53.144;6.244;2022-11-15T13:51:10;2.75;;;2.08;;
51732;SDS011;39139;53.144;6.244;2022-11-15T13:53:39;5.28;;;2.03;;
51732;SDS011;39139;53.144;6.244;2022-11-15T13:56:08;3.17;;;1.95;;
51732;SDS011;39139;53.144;6.244;2022-11-15T13:58:36;4.28;;;1.77;;
51732;SDS011;39139;53.144;6.244;2022-11-15T14:03:31;8.15;;;2.10;;
51732;SDS011;39139;53.144;6.244;2022-11-15T14:08:38;3.83;;;2.03;;
51732;SDS011;39139;53.144;6.244;2022-11-15T14:11:22;4.07;;;2.20;;
51732;SDS011;39139;53.144;6.244;2022-11-15T14:16:40;2.60;;;2.03;;
51732;SDS011;39139;53.144;6.244;2022-11-15T14:19:55;3.67;;;2.10;;
51732;SDS011;39139;53.144;6.244;2022-11-15T14:22:17;5.03;;;1.92;;
51732;SDS011;39139;53.144;6.244;2022-11-15T14:28:07;6.50;;;2.28;;
51732;SDS011;39139;53.144;6.244;2022-11-15T14:30:41;5.70;;;1.80;;
51732;SDS011;39139;53.144;6.244;2022-11-15T14:33:17;4.72;;;2.05;;
51732;SDS011;39139;53.144;6.244;2022-11-15T14:36:04;2.50;;;2.17;;
51732;SDS011;39139;53.144;6.244;2022-11-15T14:38:35;3.88;;;1.85;;
51732;SDS011;39139;53.144;6.244;2022-11-15T14:41:01;3.75;;;1.90;;
51732;SDS011;39139;53.144;6.244;2022-11-15T14:43:26;4.10;;;1.60;;
51732;SDS011;39139;53.144;6.244;2022-11-15T14:45:52;4.25;;;1.73;;
51732;SDS011;39139;53.144;6.244;2022-11-15T14:48:18;6.25;;;1.40;;
51732;SDS011;39139;53.144;6.244;2022-11-15T14:50:43;3.42;;;1.55;;
51732;SDS011;39139;53.144;6.244;2022-11-15T14:53:11;4.72;;;2.10;;
51732;SDS011;39139;53.144;6.244;2022-11-15T14:55:39;3.72;;;1.75;;
51732;SDS011;39139;53.144;6.244;2022-11-15T14:58:06;4.13;;;1.35;;
51732;SDS011;39139;53.144;6.244;2022-11-15T15:00:36;3.38;;;1.55;;
51732;SDS011;39139;53.144;6.244;2022-11-15T15:03:04;2.95;;;1.60;;
51732;SDS011;39139;53.144;6.244;2022-11-15T15:05:31;4.13;;;1.40;;
51732;SDS011;39139;53.144;6.244;2022-11-15T15:07:58;6.28;;;1.48;;
51732;SDS011;39139;53.144;6.244;2022-11-15T15:10:24;3.38;;;1.60;;
51732;SDS011;39139;53.144;6.244;2022-11-15T15:12:52;2.95;;;1.30;;
51732;SDS011;39139;53.144;6.244;2022-11-15T15:15:20;3.03;;;1.17;;
51732;SDS011;39139;53.144;6.244;2022-11-15T15:17:49;3.95;;;1.50;;
51732;SDS011;39139;53.144;6.244;2022-11-15T15:20:15;2.80;;;1.73;;
51732;SDS011;39139;53.144;6.244;2022-11-15T15:22:41;4.68;;;1.80;;
51732;SDS011;39139;53.144;6.244;2022-11-15T15:27:55;6.00;;;2.10;;
51732;SDS011;39139;53.144;6.244;2022-11-15T15:30:21;3.03;;;1.95;;
51732;SDS011;39139;53.144;6.244;2022-11-15T15:32:48;4.20;;;1.35;;
51732;SDS011;39139;53.144;6.244;2022-11-15T15:35:14;3.55;;;1.73;;
51732;SDS011;39139;53.144;6.244;2022-11-15T15:37:41;3.75;;;1.30;;
51732;SDS011;39139;53.144;6.244;2022-11-15T15:40:10;4.63;;;1.02;;
51732;SDS011;39139;53.144;6.244;2022-11-15T15:42:50;3.35;;;1.23;;
51732;SDS011;39139;53.144;6.244;2022-11-15T15:45:16;3.00;;;1.27;;
51732;SDS011;39139;53.144;6.244;2022-11-15T15:47:42;3.05;;;1.80;;
51732;SDS011;39139;53.144;6.244;2022-11-15T15:50:28;4.22;;;1.70;;
51732;SDS011;39139;53.144;6.244;2022-11-15T15:52:58;1.88;;;1.75;;
51732;SDS011;39139;53.144;6.244;2022-11-15T15:55:24;3.75;;;1.83;;
51732;SDS011;39139;53.144;6.244;2022-11-15T15:57:51;2.38;;;2.13;;
51732;SDS011;39139;53.144;6.244;2022-11-15T16:00:17;5.13;;;2.65;;
51732;SDS011;39139;53.144;6.244;2022-11-15T16:02:44;2.70;;;2.40;;
51732;SDS011;39139;53.144;6.244;2022-11-15T16:05:10;3.60;;;3.20;;
51732;SDS011;39139;53.144;6.244;2022-11-15T16:07:36;3.13;;;2.83;;
51732;SDS011;39139;53.144;6.244;2022-11-15T16:10:09;3.60;;;3.40;;
51732;SDS011;39139;53.144;6.244;2022-11-15T16:12:44;4.15;;;3.78;;
51732;SDS011;39139;53.144;6.244;2022-11-15T16:15:10;4.85;;;3.53;;
51732;SDS011;39139;53.144;6.244;2022-11-15T16:17:44;5.45;;;3.92;;
51732;SDS011;39139;53.144;6.244;2022-11-15T16:20:29;5.30;;;4.20;;
51732;SDS011;39139;53.144;6.244;2022-11-15T16:23:05;4.88;;;4.47;;
51732;SDS011;39139;53.144;6.244;2022-11-15T16:25:44;6.07;;;4.40;;
51732;SDS011;39139;53.144;6.244;2022-11-15T16:28:16;5.75;;;4.45;;
51732;SDS011;39139;53.144;6.244;2022-11-15T16:30:49;4.70;;;4.28;;
51732;SDS011;39139;53.144;6.244;2022-11-15T16:33:34;4.22;;;3.83;;
51732;SDS011;39139;53.144;6.244;2022-11-15T16:36:00;4.97;;;4.57;;
51732;SDS011;39139;53.144;6.244;2022-11-15T16:38:28;6.57;;;4.25;;
51732;SDS011;39139;53.144;6.244;2022-11-15T16:40:54;8.05;;;4.82;;
51732;SDS011;39139;53.144;6.244;2022-11-15T16:43:20;5.30;;;4.50;;
51732;SDS011;39139;53.144;6.244;2022-11-15T16:45:46;6.10;;;4.90;;
51732;SDS011;39139;53.144;6.244;2022-11-15T16:48:23;7.07;;;4.88;;
51732;SDS011;39139;53.144;6.244;2022-11-15T16:50:50;10.93;;;5.30;;
51732;SDS011;39139;53.144;6.244;2022-11-15T16:53:19;6.15;;;4.30;;
51732;SDS011;39139;53.144;6.244;2022-11-15T16:55:45;4.82;;;3.75;;
51732;SDS011;39139;53.144;6.244;2022-11-15T16:58:10;4.22;;;3.90;;
51732;SDS011;39139;53.144;6.244;2022-11-15T17:00:36;3.97;;;3.58;;
51732;SDS011;39139;53.144;6.244;2022-11-15T17:03:02;3.72;;;3.33;;